Time,TemperatureF,DewpointF,PressureIn,WindDirection,WindDirectionDegrees,WindSpeedMPH,WindSpeedGustMPH,Humidity,HourlyPrecipIn,Conditions,Clouds,dailyrainin,SoftwareType,DateUTC
2013-02-09 00:00:00,32.2,27.0,30.21,ESE,109,1.0,1.0,81,0.00,,,0.00,Wunderground v.1.15,2013-02-09 06:00:00,
2013-02-09 00:05:00,32.4,27.2,30.21,ESE,109,1.0,1.0,81,0.00,,,0.00,Wunderground v.1.15,2013-02-09 06:05:00,
2013-02-09 00:15:00,32.5,27.3,30.21,ESE,116,1.0,1.0,81,0.00,,,0.00,Wunderground v.1.15,2013-02-09 06:15:00,
2013-02-09 00:20:00,32.7,27.5,30.20,ESE,114,2.0,2.0,81,0.00,,,0.00,Wunderground v.1.15,2013-02-09 06:20:00,
2013-02-09 00:30:00,32.7,27.5,30.20,East,90,2.0,2.0,81,0.00,,,0.00,Wunderground v.1.15,2013-02-09 06:30:00,
2013-02-09 00:40:00,32.7,27.5,30.21,East,90,1.0,2.0,81,0.00,,,0.00,Wunderground v.1.15,2013-02-09 06:40:00,
2013-02-09 00:45:00,32.7,27.5,30.21,East,98,2.0,2.0,81,0.00,,,0.00,Wunderground v.1.15,2013-02-09 06:45:00,
2013-02-09 01:00:00,32.4,27.2,30.20,ESE,109,2.0,4.0,81,0.00,,,0.00,Wunderground v.1.15,2013-02-09 07:00:00,
2013-02-09 01:05:00,32.4,27.2,30.20,East,96,2.0,4.0,81,0.00,,,0.00,Wunderground v.1.15,2013-02-09 07:05:00,
2013-02-09 01:14:00,32.2,27.3,30.20,East,98,2.0,2.0,82,0.00,,,0.00,Wunderground v.1.15,2013-02-09 07:14:00,
2013-02-09 01:20:00,32.1,27.2,30.21,ESE,103,2.0,2.0,82,0.00,,,0.00,Wunderground v.1.15,2013-02-09 07:20:00,
2013-02-09 01:30:00,32.1,27.2,30.21,East,94,2.0,3.0,82,0.00,,,0.00,Wunderground v.1.15,2013-02-09 07:30:00,
2013-02-09 01:35:00,32.1,27.5,30.21,ESE,114,1.0,3.0,83,0.00,,,0.00,Wunderground v.1.15,2013-02-09 07:35:00,
2013-02-09 01:45:00,32.1,27.5,30.21,East,81,2.0,2.0,83,0.00,,,0.00,Wunderground v.1.15,2013-02-09 07:45:00,
2013-02-09 01:50:00,31.9,27.3,30.21,SE,128,2.0,2.0,83,0.00,,,0.00,Wunderground v.1.15,2013-02-09 07:50:00,
2013-02-09 02:00:00,31.9,27.6,30.21,SSE,152,2.0,2.0,84,0.00,,,0.00,Wunderground v.1.15,2013-02-09 08:00:00,
2013-02-09 02:05:00,31.9,27.6,30.20,SSE,161,3.0,3.0,84,0.00,,,0.00,Wunderground v.1.15,2013-02-09 08:05:00,
2013-02-09 02:10:00,32.1,27.8,30.20,East,98,3.0,3.0,84,0.00,,,0.00,Wunderground v.1.15,2013-02-09 08:10:00,
2013-02-09 02:20:00,32.2,27.9,30.21,East,93,3.0,3.0,84,0.00,,,0.00,Wunderground v.1.15,2013-02-09 08:20:00,
2013-02-09 02:25:00,32.4,28.1,30.21,ESE,120,3.0,3.0,84,0.00,,,0.00,Wunderground v.1.15,2013-02-09 08:25:00,
2013-02-09 02:35:00,32.4,28.4,30.21,ESE,120,3.0,3.0,85,0.00,,,0.00,Wunderground v.1.15,2013-02-09 08:35:00,
2013-02-09 02:40:00,32.4,28.4,30.21,ESE,111,2.0,2.0,85,0.00,,,0.00,Wunderground v.1.15,2013-02-09 08:40:00,
2013-02-09 02:50:00,32.5,28.5,30.20,ESE,123,2.0,3.0,85,0.00,,,0.00,Wunderground v.1.15,2013-02-09 08:50:00,
2013-02-09 02:55:00,32.5,28.5,30.20,East,95,2.0,3.0,85,0.00,,,0.00,Wunderground v.1.15,2013-02-09 08:55:00,
2013-02-09 03:05:00,32.5,28.5,30.20,South,169,2.0,3.0,85,0.00,,,0.00,Wunderground v.1.15,2013-02-09 09:05:00,
2013-02-09 03:15:00,32.7,28.7,30.20,ESE,121,2.0,3.0,85,0.00,,,0.00,Wunderground v.1.15,2013-02-09 09:15:00,
2013-02-09 03:20:00,32.7,28.7,30.21,East,96,2.0,2.0,85,0.00,,,0.00,Wunderground v.1.15,2013-02-09 09:20:00,
2013-02-09 03:30:00,32.7,29.0,30.21,SE,130,2.0,2.0,86,0.00,,,0.00,Wunderground v.1.15,2013-02-09 09:30:00,
2013-02-09 03:40:00,32.7,29.0,30.20,SSE,149,1.0,1.0,86,0.00,,,0.00,Wunderground v.1.15,2013-02-09 09:40:00,
2013-02-09 03:45:00,32.8,29.1,30.20,East,94,1.0,5.0,86,0.00,,,0.00,Wunderground v.1.15,2013-02-09 09:45:00,
2013-02-09 03:50:00,32.8,29.1,30.19,SSE,154,2.0,3.0,86,0.00,,,0.00,Wunderground v.1.15,2013-02-09 09:50:00,
2013-02-09 03:59:00,32.8,29.1,30.19,East,82,4.0,6.0,86,0.00,,,0.00,Wunderground v.1.15,2013-02-09 09:59:00,
2013-02-09 04:05:00,32.8,29.1,30.19,SSE,165,3.0,6.0,86,0.00,,,0.00,Wunderground v.1.15,2013-02-09 10:05:00,
2013-02-09 04:15:00,32.8,29.1,30.19,SE,144,4.0,9.0,86,0.00,,,0.00,Wunderground v.1.15,2013-02-09 10:15:00,
2013-02-09 04:25:00,32.7,29.0,30.19,ESE,107,5.0,5.0,86,0.00,,,0.00,Wunderground v.1.15,2013-02-09 10:25:00,
2013-02-09 04:30:00,32.7,29.0,30.19,SSE,147,4.0,4.0,86,0.00,,,0.00,Wunderground v.1.15,2013-02-09 10:30:00,
2013-02-09 04:40:00,32.7,29.3,30.18,SE,136,3.0,3.0,87,0.00,,,0.00,Wunderground v.1.15,2013-02-09 10:40:00,
2013-02-09 04:50:00,32.7,29.3,30.19,SSE,157,2.0,2.0,87,0.00,,,0.00,Wunderground v.1.15,2013-02-09 10:50:00,
2013-02-09 05:00:00,32.5,29.1,30.19,ESE,103,4.0,4.0,87,0.00,,,0.00,Wunderground v.1.15,2013-02-09 11:00:00,
2013-02-09 05:05:00,32.5,29.1,30.19,ESE,103,4.0,4.0,87,0.00,,,0.00,Wunderground v.1.15,2013-02-09 11:05:00,
2013-02-09 05:10:00,32.5,29.1,30.19,SE,135,3.0,3.0,87,0.00,,,0.00,Wunderground v.1.15,2013-02-09 11:10:00,
2013-02-09 05:20:00,32.5,29.1,30.20,East,100,3.0,5.0,87,0.00,,,0.00,Wunderground v.1.15,2013-02-09 11:20:00,
2013-02-09 05:25:00,32.5,29.1,30.20,SSE,153,3.0,10.0,87,0.00,,,0.00,Wunderground v.1.15,2013-02-09 11:25:00,
2013-02-09 05:35:00,32.5,28.8,30.20,SE,142,3.0,4.0,86,0.00,,,0.00,Wunderground v.1.15,2013-02-09 11:35:00,
2013-02-09 05:45:00,32.4,28.4,30.20,ESE,102,3.0,3.0,85,0.00,,,0.00,Wunderground v.1.15,2013-02-09 11:45:00,
2013-02-09 05:50:00,32.5,28.5,30.18,SE,138,2.0,3.0,85,0.00,,,0.00,Wunderground v.1.15,2013-02-09 11:50:00,
2013-02-09 06:00:00,32.5,28.5,30.18,East,95,2.0,2.0,85,0.00,,,0.00,Wunderground v.1.15,2013-02-09 12:00:00,
2013-02-09 06:05:00,32.5,28.5,30.18,SE,140,2.0,2.0,85,0.00,,,0.00,Wunderground v.1.15,2013-02-09 12:05:00,
2013-02-09 06:10:00,32.5,28.5,30.18,ESE,106,2.0,3.0,85,0.00,,,0.00,Wunderground v.1.15,2013-02-09 12:10:00,
2013-02-09 06:20:00,32.4,28.1,30.18,ESE,103,3.0,6.0,84,0.00,,,0.00,Wunderground v.1.15,2013-02-09 12:20:00,
2013-02-09 06:30:00,32.2,27.9,30.18,SE,140,4.0,4.0,84,0.00,,,0.00,Wunderground v.1.15,2013-02-09 12:30:00,
2013-02-09 06:40:00,32.2,27.9,30.18,SE,144,3.0,3.0,84,0.00,,,0.00,Wunderground v.1.15,2013-02-09 12:40:00,
2013-02-09 06:45:00,32.1,27.8,30.18,SE,143,3.0,4.0,84,0.00,,,0.00,Wunderground v.1.15,2013-02-09 12:45:00,
2013-02-09 06:55:00,32.1,27.8,30.18,SE,128,3.0,3.0,84,0.00,,,0.00,Wunderground v.1.15,2013-02-09 12:55:00,
2013-02-09 07:05:00,32.1,27.8,30.18,SSE,152,2.0,2.0,84,0.00,,,0.00,Wunderground v.1.15,2013-02-09 13:05:00,
2013-02-09 07:10:00,32.1,27.8,30.18,SE,136,2.0,3.0,84,0.00,,,0.00,Wunderground v.1.15,2013-02-09 13:10:00,
2013-02-09 07:20:00,32.1,27.5,30.20,South,177,4.0,4.0,83,0.00,,,0.00,Wunderground v.1.15,2013-02-09 13:20:00,
2013-02-09 07:30:00,31.9,27.0,30.20,South,169,5.0,5.0,82,0.00,,,0.00,Wunderground v.1.15,2013-02-09 13:30:00,
2013-02-09 07:40:00,32.1,27.2,30.22,SE,144,6.0,6.0,82,0.00,,,0.00,Wunderground v.1.15,2013-02-09 13:40:00,
2013-02-09 07:50:00,32.2,27.0,30.21,SSE,150,5.0,5.0,81,0.00,,,0.00,Wunderground v.1.15,2013-02-09 13:50:00,
2013-02-09 08:00:00,32.4,27.2,30.21,East,100,4.0,4.0,81,0.00,,,0.00,Wunderground v.1.15,2013-02-09 14:00:00,
2013-02-09 08:05:00,32.4,27.5,30.20,SE,132,4.0,5.0,82,0.00,,,0.00,Wunderground v.1.15,2013-02-09 14:05:00,
2013-02-09 08:15:00,32.5,27.6,30.20,SSE,166,4.0,5.0,82,0.00,,,0.00,Wunderground v.1.15,2013-02-09 14:15:00,
2013-02-09 08:25:00,32.8,27.6,30.20,SE,128,3.0,6.0,81,0.00,,,0.00,Wunderground v.1.15,2013-02-09 14:25:00,
2013-02-09 08:35:00,32.8,27.6,30.19,SSE,154,4.0,4.0,81,0.00,,,0.00,Wunderground v.1.15,2013-02-09 14:35:00,
2013-02-09 08:40:00,32.9,27.7,30.19,East,100,4.0,10.0,81,0.00,,,0.00,Wunderground v.1.15,2013-02-09 14:40:00,
2013-02-09 08:45:00,32.9,27.4,30.19,East,95,4.0,10.0,80,0.00,,,0.00,Wunderground v.1.15,2013-02-09 14:45:00,
2013-02-09 08:55:00,33.1,27.6,30.19,ESE,115,4.0,5.0,80,0.00,,,0.00,Wunderground v.1.15,2013-02-09 14:55:00,
2013-02-09 09:00:00,33.1,27.6,30.19,SSE,156,4.0,4.0,80,0.00,,,0.00,Wunderground v.1.15,2013-02-09 15:00:00,
2013-02-09 09:05:00,33.1,27.6,30.19,SE,140,5.0,6.0,80,0.00,,,0.00,Wunderground v.1.15,2013-02-09 15:05:00,
2013-02-09 09:15:00,33.4,27.9,30.19,ENE,74,4.0,11.0,80,0.00,,,0.00,Wunderground v.1.15,2013-02-09 15:15:00,
2013-02-09 09:24:00,33.5,28.0,30.19,SSE,161,4.0,4.0,80,0.00,,,0.00,Wunderground v.1.15,2013-02-09 15:24:00,
2013-02-09 09:30:00,33.5,27.7,30.19,ESE,117,5.0,5.0,79,0.00,,,0.00,Wunderground v.1.15,2013-02-09 15:30:00,
2013-02-09 09:40:00,33.8,27.7,30.19,ESE,114,5.0,5.0,78,0.00,,,0.00,Wunderground v.1.15,2013-02-09 15:40:00,
2013-02-09 09:50:00,34.1,28.3,30.19,ESE,110,5.0,5.0,79,0.00,,,0.00,Wunderground v.1.15,2013-02-09 15:50:00,
2013-02-09 10:00:00,34.4,28.2,30.19,East,100,4.0,4.0,78,0.00,,,0.00,Wunderground v.1.15,2013-02-09 16:00:00,
2013-02-09 10:05:00,34.4,27.9,30.18,SSE,152,5.0,5.0,77,0.00,,,0.00,Wunderground v.1.15,2013-02-09 16:05:00,
2013-02-09 10:15:00,35.2,28.7,30.18,ESE,121,4.0,4.0,77,0.00,,,0.00,Wunderground v.1.15,2013-02-09 16:15:00,
2013-02-09 10:25:00,35.9,28.7,30.18,ESE,122,5.0,5.0,75,0.00,,,0.00,Wunderground v.1.15,2013-02-09 16:25:00,
2013-02-09 10:35:00,35.8,28.6,30.17,East,95,5.0,6.0,75,0.00,,,0.00,Wunderground v.1.15,2013-02-09 16:35:00,
2013-02-09 10:45:00,36.2,29.0,30.17,SSE,154,5.0,5.0,75,0.00,,,0.00,Wunderground v.1.15,2013-02-09 16:45:00,
2013-02-09 10:50:00,36.5,29.3,30.16,SSE,161,5.0,6.0,75,0.00,,,0.00,Wunderground v.1.15,2013-02-09 16:50:00,
2013-02-09 11:00:00,36.2,29.4,30.16,ESE,112,8.0,8.0,76,0.00,,,0.00,Wunderground v.1.15,2013-02-09 17:00:00,
2013-02-09 11:05:00,36.8,29.0,30.16,SSE,165,6.0,8.0,73,0.00,,,0.00,Wunderground v.1.15,2013-02-09 17:05:00,
2013-02-09 11:10:00,37.5,29.6,30.16,East,97,5.0,5.0,73,0.00,,,0.00,Wunderground v.1.15,2013-02-09 17:10:00,
2013-02-09 11:20:00,37.2,29.3,30.15,SSE,150,7.0,7.0,73,0.00,,,0.00,Wunderground v.1.15,2013-02-09 17:20:00,
2013-02-09 11:25:00,38.0,28.7,30.15,SSE,147,5.0,7.0,69,0.00,,,0.00,Wunderground v.1.15,2013-02-09 17:25:00,
2013-02-09 11:35:00,38.3,29.4,30.14,SSE,149,6.0,6.0,70,0.00,,,0.00,Wunderground v.1.15,2013-02-09 17:35:00,
2013-02-09 11:45:00,38.2,28.9,30.14,SE,128,7.0,11.0,69,0.00,,,0.00,Wunderground v.1.15,2013-02-09 17:45:00,
2013-02-09 11:55:00,38.5,29.6,30.14,ESE,106,5.0,6.0,70,0.00,,,0.00,Wunderground v.1.15,2013-02-09 17:55:00,
2013-02-09 12:05:00,38.5,29.2,30.12,SSE,163,4.0,6.0,69,0.00,,,0.00,Wunderground v.1.15,2013-02-09 18:05:00,
2013-02-09 12:15:00,37.9,29.0,30.12,SSE,166,6.0,6.0,70,0.00,,,0.00,Wunderground v.1.15,2013-02-09 18:15:00,
2013-02-09 12:20:00,38.2,29.6,30.11,SSE,153,6.0,6.0,71,0.00,,,0.00,Wunderground v.1.15,2013-02-09 18:20:00,
2013-02-09 12:30:00,39.8,29.7,30.11,SSE,152,5.0,10.0,67,0.00,,,0.00,Wunderground v.1.15,2013-02-09 18:30:00,
2013-02-09 12:40:00,40.1,29.6,30.09,SSE,158,6.0,6.0,66,0.00,,,0.00,Wunderground v.1.15,2013-02-09 18:40:00,
2013-02-09 12:50:00,39.6,28.8,30.08,SE,134,6.0,6.0,65,0.00,,,0.00,Wunderground v.1.15,2013-02-09 18:50:00,
2013-02-09 12:55:00,39.2,29.2,30.08,ESE,115,7.0,7.0,67,0.00,,,0.00,Wunderground v.1.15,2013-02-09 18:55:00,
2013-02-09 13:05:00,38.9,28.1,30.07,SSW,192,5.0,7.0,65,0.00,,,0.00,Wunderground v.1.15,2013-02-09 19:05:00,
2013-02-09 13:15:00,38.9,28.5,30.07,SSE,157,4.0,6.0,66,0.00,,,0.00,Wunderground v.1.15,2013-02-09 19:15:00,
2013-02-09 13:25:00,39.2,28.4,30.06,SE,138,6.0,6.0,65,0.00,,,0.00,Wunderground v.1.15,2013-02-09 19:25:00,
2013-02-09 13:35:00,39.5,28.3,30.04,SE,127,6.0,6.0,64,0.00,,,0.00,Wunderground v.1.15,2013-02-09 19:35:00,
2013-02-09 13:40:00,39.8,29.0,30.04,East,98,5.0,6.0,65,0.00,,,0.00,Wunderground v.1.15,2013-02-09 19:40:00,
2013-02-09 13:50:00,39.6,28.4,30.04,SSE,160,6.0,16.0,64,0.00,,,0.00,Wunderground v.1.15,2013-02-09 19:50:00,
2013-02-09 14:00:00,39.5,28.3,30.04,East,101,6.0,6.0,64,0.00,,,0.00,Wunderground v.1.15,2013-02-09 20:00:00,
2013-02-09 14:05:00,39.8,29.0,30.02,SSE,150,6.0,8.0,65,0.00,,,0.00,Wunderground v.1.15,2013-02-09 20:05:00,
2013-02-09 14:15:00,40.2,28.6,30.02,South,169,7.0,7.0,63,0.00,,,0.00,Wunderground v.1.15,2013-02-09 20:15:00,
2013-02-09 14:25:00,40.1,28.9,30.02,East,101,6.0,7.0,64,0.00,,,0.00,Wunderground v.1.15,2013-02-09 20:25:00,
2013-02-09 14:35:00,40.1,28.1,30.02,SSE,167,6.0,6.0,62,0.00,,,0.00,Wunderground v.1.15,2013-02-09 20:35:00,
2013-02-09 14:40:00,40.1,28.5,30.02,SE,129,6.0,6.0,63,0.00,,,0.00,Wunderground v.1.15,2013-02-09 20:40:00,
2013-02-09 14:50:00,40.3,29.1,30.01,ESE,119,4.0,5.0,64,0.00,,,0.00,Wunderground v.1.15,2013-02-09 20:50:00,
2013-02-09 15:00:00,40.2,28.6,30.01,SE,146,4.0,12.0,63,0.00,,,0.00,Wunderground v.1.15,2013-02-09 21:00:00,
2013-02-09 15:05:00,39.6,28.4,30.01,ENE,77,5.0,12.0,64,0.00,,,0.00,Wunderground v.1.15,2013-02-09 21:05:00,
2013-02-09 15:10:00,39.5,28.3,30.01,SE,146,5.0,5.0,64,0.00,,,0.00,Wunderground v.1.15,2013-02-09 21:10:00,
2013-02-09 15:19:00,39.3,28.5,30.00,SSE,164,5.0,5.0,65,0.00,,,0.00,Wunderground v.1.15,2013-02-09 21:19:00,
2013-02-09 15:25:00,39.3,28.1,30.00,SE,144,5.0,5.0,64,0.00,,,0.00,Wunderground v.1.15,2013-02-09 21:25:00,
2013-02-09 15:35:00,39.5,28.7,30.00,SE,136,4.0,7.0,65,0.00,,,0.00,Wunderground v.1.15,2013-02-09 21:35:00,
2013-02-09 15:45:00,39.2,28.4,30.00,East,85,5.0,5.0,65,0.00,,,0.00,Wunderground v.1.15,2013-02-09 21:45:00,
2013-02-09 15:54:00,38.9,28.1,29.99,SSE,150,4.0,5.0,65,0.00,,,0.00,Wunderground v.1.15,2013-02-09 21:54:00,
2013-02-09 16:00:00,38.9,28.1,29.99,SSE,159,4.0,4.0,65,0.00,,,0.00,Wunderground v.1.15,2013-02-09 22:00:00,
2013-02-09 16:05:00,38.9,27.4,29.99,SE,141,4.0,6.0,63,0.00,,,0.00,Wunderground v.1.15,2013-02-09 22:05:00,
2013-02-09 16:10:00,38.8,28.0,29.99,ESE,120,6.0,6.0,65,0.00,,,0.00,Wunderground v.1.15,2013-02-09 22:10:00,
2013-02-09 16:20:00,38.8,28.4,29.99,East,81,2.0,4.0,66,0.00,,,0.00,Wunderground v.1.15,2013-02-09 22:20:00,
2013-02-09 16:30:00,38.8,28.8,29.99,SSE,156,3.0,5.0,67,0.00,,,0.00,Wunderground v.1.15,2013-02-09 22:30:00,
2013-02-09 16:40:00,38.6,28.9,30.00,SE,145,2.0,4.0,68,0.00,,,0.00,Wunderground v.1.15,2013-02-09 22:40:00,
2013-02-09 16:45:00,38.5,29.2,30.00,SSE,152,3.0,4.0,69,0.00,,,0.00,Wunderground v.1.15,2013-02-09 22:45:00,
2013-02-09 16:55:00,38.3,29.7,30.00,SSE,161,4.0,6.0,71,0.00,,,0.00,Wunderground v.1.15,2013-02-09 22:55:00,
2013-02-09 17:05:00,37.9,30.0,30.00,East,83,2.0,4.0,73,0.00,,,0.00,Wunderground v.1.15,2013-02-09 23:05:00,
2013-02-09 17:10:00,37.8,30.6,30.00,East,84,1.0,1.0,75,0.00,,,0.00,Wunderground v.1.15,2013-02-09 23:10:00,
2013-02-09 17:19:00,37.5,30.6,30.01,SE,142,3.0,3.0,76,0.00,,,0.00,Wunderground v.1.15,2013-02-09 23:19:00,
2013-02-09 17:25:00,37.3,31.1,30.01,SSE,160,3.0,3.0,78,0.00,,,0.01,Wunderground v.1.15,2013-02-09 23:25:00,
2013-02-09 17:35:00,36.8,31.5,29.99,ESE,110,3.0,3.0,81,0.09,,,0.02,Wunderground v.1.15,2013-02-09 23:35:00,
2013-02-09 17:45:00,36.5,31.5,29.99,NNE,16,3.0,10.0,82,0.04,,,0.02,Wunderground v.1.15,2013-02-09 23:45:00,
2013-02-09 17:50:00,36.3,31.6,29.96,East,94,3.0,3.0,83,0.04,,,0.03,Wunderground v.1.15,2013-02-09 23:50:00,
2013-02-09 18:00:00,36.2,31.8,29.96,SSE,150,2.0,2.0,84,0.05,,,0.04,Wunderground v.1.15,2013-02-10 00:00:00,
2013-02-09 18:05:00,36.2,32.1,29.97,East,100,2.0,5.0,85,0.05,,,0.04,Wunderground v.1.15,2013-02-10 00:05:00,
2013-02-09 18:15:00,36.2,32.1,29.97,SE,142,2.0,7.0,85,0.00,,,0.04,Wunderground v.1.15,2013-02-10 00:15:00,
2013-02-09 18:20:00,36.3,32.2,29.96,South,179,2.0,4.0,85,0.00,,,0.04,Wunderground v.1.15,2013-02-10 00:20:00,
2013-02-09 18:29:00,36.3,31.9,29.96,East,98,3.0,3.0,84,0.00,,,0.04,Wunderground v.1.15,2013-02-10 00:29:00,
2013-02-09 18:35:00,36.3,31.9,29.95,SE,146,4.0,5.0,84,0.00,,,0.04,Wunderground v.1.15,2013-02-10 00:35:00,
2013-02-09 18:45:00,36.3,32.2,29.95,ENE,64,3.0,4.0,85,0.00,,,0.04,Wunderground v.1.15,2013-02-10 00:45:00,
2013-02-09 18:55:00,36.3,32.2,29.95,East,90,3.0,4.0,85,0.00,,,0.05,Wunderground v.1.15,2013-02-10 00:55:00,
2013-02-09 19:05:00,36.3,32.5,29.92,ESE,105,5.0,5.0,86,0.06,,,0.06,Wunderground v.1.15,2013-02-10 01:05:00,
2013-02-09 19:15:00,36.2,32.4,29.92,ESE,106,4.0,5.0,86,0.05,,,0.06,Wunderground v.1.15,2013-02-10 01:15:00,
2013-02-09 19:25:00,36.0,32.2,29.91,SE,124,4.0,6.0,86,0.04,,,0.07,Wunderground v.1.15,2013-02-10 01:25:00,
2013-02-09 19:35:00,36.2,32.4,29.90,ESE,106,3.0,3.0,86,0.04,,,0.07,Wunderground v.1.15,2013-02-10 01:35:00,
2013-02-09 19:40:00,36.2,32.4,29.90,SE,128,4.0,4.0,86,0.00,,,0.07,Wunderground v.1.15,2013-02-10 01:40:00,
2013-02-09 19:50:00,36.3,32.5,29.90,SE,134,4.0,4.0,86,0.00,,,0.07,Wunderground v.1.15,2013-02-10 01:50:00,
2013-02-09 19:55:00,36.3,32.5,29.90,SSE,159,3.0,4.0,86,0.00,,,0.07,Wunderground v.1.15,2013-02-10 01:55:00,
2013-02-09 20:05:00,36.6,32.2,29.93,ESE,103,4.0,5.0,84,0.00,,,0.07,Wunderground v.1.15,2013-02-10 02:05:00,
2013-02-09 20:10:00,36.6,32.2,29.93,South,185,3.0,6.0,84,0.00,,,0.07,Wunderground v.1.15,2013-02-10 02:10:00,
2013-02-09 20:19:00,36.8,32.7,29.95,ESE,105,4.0,5.0,85,0.00,,,0.07,Wunderground v.1.15,2013-02-10 02:19:00,
2013-02-09 20:25:00,36.8,32.7,29.95,ESE,113,4.0,5.0,85,0.00,,,0.07,Wunderground v.1.15,2013-02-10 02:25:00,
2013-02-09 20:30:00,36.6,32.5,29.95,ESE,103,4.0,4.0,85,0.00,,,0.07,Wunderground v.1.15,2013-02-10 02:30:00,
2013-02-09 20:35:00,36.6,32.5,29.91,SE,125,3.0,4.0,85,0.00,,,0.07,Wunderground v.1.15,2013-02-10 02:35:00,
2013-02-09 20:40:00,36.6,32.5,29.91,SSE,157,4.0,4.0,85,0.00,,,0.07,Wunderground v.1.15,2013-02-10 02:40:00,
2013-02-09 20:50:00,36.6,32.8,29.92,SE,136,3.0,3.0,86,0.00,,,0.07,Wunderground v.1.15,2013-02-10 02:50:00,
2013-02-09 20:55:00,36.6,32.8,29.92,ENE,78,4.0,6.0,86,0.00,,,0.07,Wunderground v.1.15,2013-02-10 02:55:00,
2013-02-09 21:00:00,36.6,32.8,29.92,SE,140,5.0,11.0,86,0.00,,,0.07,Wunderground v.1.15,2013-02-10 03:00:00,
2013-02-09 21:05:00,36.6,32.8,29.90,SSE,157,4.0,11.0,86,0.00,,,0.07,Wunderground v.1.15,2013-02-10 03:05:00,
2013-02-09 21:15:00,36.6,32.8,29.90,East,85,3.0,4.0,86,0.00,,,0.07,Wunderground v.1.15,2013-02-10 03:15:00,
2013-02-09 21:20:00,36.6,33.1,29.93,SE,140,3.0,3.0,87,0.00,,,0.07,Wunderground v.1.15,2013-02-10 03:20:00,
2013-02-09 21:30:00,36.8,33.3,29.93,SSE,158,3.0,4.0,87,0.00,,,0.07,Wunderground v.1.15,2013-02-10 03:30:00,
2013-02-09 21:40:00,36.9,33.4,29.91,ESE,113,4.0,4.0,87,0.00,,,0.07,Wunderground v.1.15,2013-02-10 03:40:00,
2013-02-09 21:45:00,36.9,33.4,29.91,SSE,153,3.0,4.0,87,0.00,,,0.08,Wunderground v.1.15,2013-02-10 03:45:00,
2013-02-09 21:50:00,36.9,33.4,29.92,South,170,3.0,3.0,87,0.00,,,0.08,Wunderground v.1.15,2013-02-10 03:50:00,
2013-02-09 21:59:00,36.9,33.4,29.92,SSE,167,4.0,4.0,87,0.00,,,0.08,Wunderground v.1.15,2013-02-10 03:59:00,
2013-02-09 22:05:00,36.9,33.4,29.89,ESE,117,5.0,5.0,87,0.00,,,0.08,Wunderground v.1.15,2013-02-10 04:05:00,
2013-02-09 22:15:00,36.8,33.3,29.89,SSE,161,5.0,6.0,87,0.00,,,0.09,Wunderground v.1.15,2013-02-10 04:15:00,
2013-02-09 22:20:00,36.8,33.3,29.87,SSE,157,5.0,8.0,87,0.00,,,0.09,Wunderground v.1.15,2013-02-10 04:20:00,
2013-02-09 22:25:00,36.8,33.6,29.87,ESE,107,5.0,8.0,88,0.00,,,0.09,Wunderground v.1.15,2013-02-10 04:25:00,
2013-02-09 22:35:00,36.9,33.7,29.88,SSE,158,5.0,7.0,88,0.04,,,0.10,Wunderground v.1.15,2013-02-10 04:35:00,
2013-02-09 22:40:00,36.9,33.7,29.88,South,178,4.0,4.0,88,0.05,,,0.11,Wunderground v.1.15,2013-02-10 04:40:00,
2013-02-09 22:50:00,36.9,34.0,29.88,SE,128,4.0,4.0,89,0.05,,,0.11,Wunderground v.1.15,2013-02-10 04:50:00,
2013-02-09 22:59:00,36.9,34.0,29.88,SE,138,5.0,5.0,89,0.00,,,0.11,Wunderground v.1.15,2013-02-10 04:59:00,
2013-02-09 23:05:00,37.0,34.1,29.86,ESE,115,4.0,5.0,89,0.00,,,0.11,Wunderground v.1.15,2013-02-10 05:05:00,
2013-02-09 23:10:00,37.0,34.1,29.86,East,94,4.0,4.0,89,0.00,,,0.11,Wunderground v.1.15,2013-02-10 05:10:00,
2013-02-09 23:15:00,37.2,34.3,29.86,SSE,147,4.0,4.0,89,0.00,,,0.11,Wunderground v.1.15,2013-02-10 05:15:00,
2013-02-09 23:20:00,37.2,34.3,29.85,ESE,107,4.0,4.0,89,0.00,,,0.11,Wunderground v.1.15,2013-02-10 05:20:00,
2013-02-09 23:30:00,37.3,34.4,29.85,SE,128,4.0,4.0,89,0.00,,,0.11,Wunderground v.1.15,2013-02-10 05:30:00,
2013-02-09 23:35:00,37.5,34.6,29.86,SSE,154,4.0,4.0,89,0.00,,,0.11,Wunderground v.1.15,2013-02-10 05:35:00,
2013-02-09 23:40:00,37.6,34.7,29.86,SSE,155,4.0,4.0,89,0.00,,,0.12,Wunderground v.1.15,2013-02-10 05:40:00,
2013-02-09 23:45:00,37.6,34.7,29.86,SSE,150,4.0,4.0,89,0.00,,,0.12,Wunderground v.1.15,2013-02-10 05:45:00,
2013-02-09 23:55:00,37.8,34.6,29.85,East,82,5.0,10.0,88,0.00,,,0.12,Wunderground v.1.15,2013-02-10 05:55:00,